Terminal Aerodrome Forecast
Issued by NWS Billings, MT

Home | Current Version | Previous Version | Graphics & Text | Print | Product List | Glossary On
Versions: 1 2 3 4 5 6 7 8 9 10 11 12 13 14 15 16 17 18 19 20 21 22 23 24 25 26 27 28
000
FTUS45 KBYZ 222337
TAFMLS
TAF
KMLS 222337Z 2300/2324 10012KT P6SM VCSH OVC025
     FM230300 10015KT 5SM BR VCTS BKN014CB
     FM230600 10015KT 5SM BR VCSH BKN012
     FM231000 10017KT 4SM BR VCSH OVC009
     FM231200 10010KT 1SM BR VCSH OVC002
     FM232000 32015G22KT 6SM BR VCSH SCT005 OVC015=

USA.gov is the U.S. government's official web portal to all federal, state and local government web resources and services.